Nsu Inspire — 3FID5 — position and weather

sailwx.info

Track history (hours):
 
Tides and Currents Weather Stations Pressure Air Temp Water Temp Dewpoint Dewpoint Depression Visibility Wind Speed Wind Dir Waves Ship Positions

Nsu Inspire

Last reported at 2016-May-20 21:16 UTC. Time now 2016-May-29 22:54 UTC.
Position N 34°42' E 139°38'.
Warning: this ship's position is 9 days out of date.

Length 330 m; draft 13 m.

Type: Cargo ship. MMSI: 372998000.

Date/timePositionNaut miles runAvg speedWind from/ knotsBaromVisibWave heightAir tempDewpointWater temp
2016-May-20 21:16N 34°42' E 139°38'1014.4
2016-May-20 20:33N 34°46' E 139°50'1414.5
2016-May-20 19:33N 34°51' E 140°06'1714.2
2016-May-20 18:23N 34°57' E 140°25'1112.7
2016-May-20 17:32N 35°02' E 140°37'4212.3
2016-May-20 14:06N 35°36' E 141°07'2313.3
2016-May-20 12:23N 35°56' E 140°53'910.3
2016-May-20 11:33N 35°59' E 140°43'4 3.5
2016-May-20 10:32N 35°55' E 140°41'0 0.0
2016-May-20 07:31N 35°55' E 140°41'0 0.0
2016-May-20 06:31N 35°55' E 140°41'0 0.0
2016-May-20 02:28N 35°55' E 140°41'0 0.0
2016-May-19 22:31N 35°55' E 140°41'0 0.0
2016-May-19 20:19N 35°55' E 140°41'0 0.0
2016-May-19 19:31N 35°55' E 140°41'0 0.0
2016-May-19 18:07N 35°55' E 140°41'0 0.0
2016-May-19 17:31N 35°55' E 140°41'0 0.0
2016-May-19 16:31N 35°55' E 140°41'0 0.0
2016-May-19 15:16N 35°55' E 140°41'0 0.0
2016-May-19 14:31N 35°55' E 140°41'0 0.0
2016-May-19 13:28N 35°55' E 140°41'0 0.0
2016-May-19 12:22N 35°55' E 140°41'0 0.0
2016-May-19 11:19N 35°55' E 140°41'0 0.0
2016-May-19 10:10N 35°55' E 140°41'0 0.0
2016-May-19 08:04N 35°55' E 140°41'0 0.0
2016-May-19 07:16N 35°55' E 140°41'0 0.0
2016-May-19 06:16N 35°55' E 140°41'0 0.0
2016-May-18 22:13N 35°55' E 140°41'0 0.0
2016-May-18 21:31N 35°55' E 140°41'0 0.0
2016-May-18 20:31N 35°55' E 140°41'0 0.0
2016-May-18 19:25N 35°55' E 140°41'0 0.0
2016-May-18 18:31N 35°55' E 140°41'0 0.0
2016-May-18 17:31N 35°55' E 140°41'0 0.0
2016-May-18 16:30N 35°55' E 140°41'0 0.0
2016-May-18 15:31N 35°55' E 140°41'0 0.0
2016-May-18 14:31N 35°55' E 140°41'0 0.0
2016-May-18 13:31N 35°55' E 140°41'0 0.0
2016-May-18 12:31N 35°55' E 140°41'0 0.0
2016-May-18 11:31N 35°55' E 140°41'0 0.0
2016-May-18 10:31N 35°55' E 140°41'0 0.0
2016-May-18 03:25N 35°55' E 140°41'2 2.4
2016-May-18 02:33N 35°57' E 140°42'6 5.9
2016-May-18 01:32N 35°60' E 140°49'6 6.6
2016-May-18 00:33N 35°57' E 140°57'8 8.2
2016-May-17 23:33N 35°55' E 141°06'2 1.6
2016-May-17 22:29N 35°55' E 141°08'0 0.3
2016-May-17 21:20N 35°55' E 141°08'0 0.1
2016-May-17 20:29N 35°55' E 141°08'0 0.3
2016-May-17 19:32N 35°55' E 141°09'0 0.4
2016-May-17 18:32N 35°55' E 141°09'1 0.6
2016-May-17 17:32N 35°54' E 141°09'5 5.0
2016-May-17 16:32N 35°52' E 141°03'2 0.9
2016-May-17 14:23N 35°51' E 141°02'7 0.2
2016-May-16 03:14N 35°51' E 141°10'2 0.1
2016-May-15 11:33N 35°52' E 141°08'51 3.5
2016-May-14 21:09N 35°04' E 140°46'1115.5
2016-May-14 20:27N 34°57' E 140°36'1415.1
2016-May-14 19:33N 34°49' E 140°23'1514.5
2016-May-14 18:33N 34°40' E 140°09'  
Track history (hours):
 
Tides and Currents Weather Stations Pressure Air Temp Water Temp Dewpoint Dewpoint Depression Visibility Wind Speed Wind Dir Waves Ship Positions

Nsu Inspire

Last reported at 2016-May-20 21:16 UTC. Time now 2016-May-29 22:54 UTC.
Position N 34°42' E 139°38'.
Warning: this ship's position is 9 days out of date.

Length 330 m; draft 13 m.

Type: Cargo ship. MMSI: 372998000.

Date/timePositionNaut miles runAvg speedWind from/ knotsBaromVisibWave heightAir tempDewpointWater temp
2016-May-20 21:16N 34°42' E 139°38'1014.4
2016-May-20 20:33N 34°46' E 139°50'1414.5
2016-May-20 19:33N 34°51' E 140°06'1714.2
2016-May-20 18:23N 34°57' E 140°25'1112.7
2016-May-20 17:32N 35°02' E 140°37'4212.3
2016-May-20 14:06N 35°36' E 141°07'2313.3
2016-May-20 12:23N 35°56' E 140°53'910.3
2016-May-20 11:33N 35°59' E 140°43'4 3.5
2016-May-20 10:32N 35°55' E 140°41'0 0.0
2016-May-20 07:31N 35°55' E 140°41'0 0.0
2016-May-20 06:31N 35°55' E 140°41'0 0.0
2016-May-20 02:28N 35°55' E 140°41'0 0.0
2016-May-19 22:31N 35°55' E 140°41'0 0.0
2016-May-19 20:19N 35°55' E 140°41'0 0.0
2016-May-19 19:31N 35°55' E 140°41'0 0.0
2016-May-19 18:07N 35°55' E 140°41'0 0.0
2016-May-19 17:31N 35°55' E 140°41'0 0.0
2016-May-19 16:31N 35°55' E 140°41'0 0.0
2016-May-19 15:16N 35°55' E 140°41'0 0.0
2016-May-19 14:31N 35°55' E 140°41'0 0.0
2016-May-19 13:28N 35°55' E 140°41'0 0.0
2016-May-19 12:22N 35°55' E 140°41'0 0.0
2016-May-19 11:19N 35°55' E 140°41'0 0.0
2016-May-19 10:10N 35°55' E 140°41'0 0.0
2016-May-19 08:04N 35°55' E 140°41'0 0.0
2016-May-19 07:16N 35°55' E 140°41'0 0.0
2016-May-19 06:16N 35°55' E 140°41'0 0.0
2016-May-18 22:13N 35°55' E 140°41'0 0.0
2016-May-18 21:31N 35°55' E 140°41'0 0.0
2016-May-18 20:31N 35°55' E 140°41'0 0.0
2016-May-18 19:25N 35°55' E 140°41'0 0.0
2016-May-18 18:31N 35°55' E 140°41'0 0.0
2016-May-18 17:31N 35°55' E 140°41'0 0.0
2016-May-18 16:30N 35°55' E 140°41'0 0.0
2016-May-18 15:31N 35°55' E 140°41'0 0.0
2016-May-18 14:31N 35°55' E 140°41'0 0.0
2016-May-18 13:31N 35°55' E 140°41'0 0.0
2016-May-18 12:31N 35°55' E 140°41'0 0.0
2016-May-18 11:31N 35°55' E 140°41'0 0.0
2016-May-18 10:31N 35°55' E 140°41'0 0.0
2016-May-18 03:25N 35°55' E 140°41'2 2.4
2016-May-18 02:33N 35°57' E 140°42'6 5.9
2016-May-18 01:32N 35°60' E 140°49'6 6.6
2016-May-18 00:33N 35°57' E 140°57'8 8.2
2016-May-17 23:33N 35°55' E 141°06'2 1.6
2016-May-17 22:29N 35°55' E 141°08'0 0.3
2016-May-17 21:20N 35°55' E 141°08'0 0.1
2016-May-17 20:29N 35°55' E 141°08'0 0.3
2016-May-17 19:32N 35°55' E 141°09'0 0.4
2016-May-17 18:32N 35°55' E 141°09'1 0.6
2016-May-17 17:32N 35°54' E 141°09'5 5.0
2016-May-17 16:32N 35°52' E 141°03'2 0.9
2016-May-17 14:23N 35°51' E 141°02'7 0.2
2016-May-16 03:14N 35°51' E 141°10'2 0.1
2016-May-15 11:33N 35°52' E 141°08'51 3.5
2016-May-14 21:09N 35°04' E 140°46'1115.5
2016-May-14 20:27N 34°57' E 140°36'1415.1
2016-May-14 19:33N 34°49' E 140°23'1514.5
2016-May-14 18:33N 34°40' E 140°09'  

Dump ship's entire track history